createdAt,value
2023-02-15T00:01:52.908Z,99.90
2023-02-15T00:04:22.036Z,99.90
2023-02-15T00:06:49.263Z,99.90
2023-02-15T00:09:16.097Z,99.90
2023-02-15T00:11:50.906Z,99.90
2023-02-15T00:14:19.790Z,99.90
2023-02-15T00:16:47.255Z,99.90
2023-02-15T00:19:15.609Z,99.90
2023-02-15T00:21:42.737Z,99.90
2023-02-15T00:24:11.360Z,99.90
2023-02-15T00:26:41.134Z,99.90
2023-02-15T00:29:08.845Z,99.90
2023-02-15T00:31:36.346Z,99.90
2023-02-15T00:34:11.775Z,99.90
2023-02-15T00:36:38.801Z,99.90
2023-02-15T00:39:05.741Z,99.90
2023-02-15T00:41:33.397Z,99.90
2023-02-15T00:44:00.114Z,99.90
2023-02-15T00:46:26.906Z,99.90
2023-02-15T00:48:53.606Z,99.90
2023-02-15T00:51:21.362Z,99.90
2023-02-15T00:53:48.509Z,99.90
2023-02-15T00:56:15.743Z,99.90
2023-02-15T00:58:43.043Z,99.90
2023-02-15T01:01:13.453Z,99.90
2023-02-15T01:03:42.586Z,99.90
2023-02-15T01:06:09.714Z,99.90
2023-02-15T01:08:36.386Z,99.90
2023-02-15T01:11:11.693Z,99.90
2023-02-15T01:13:40.031Z,99.90
2023-02-15T01:16:06.891Z,99.90
2023-02-15T01:18:34.256Z,99.90
2023-02-15T01:21:01.250Z,99.90
2023-02-15T01:23:27.973Z,99.90
2023-02-15T01:25:54.607Z,99.90
2023-02-15T01:28:21.264Z,99.90
2023-02-15T01:30:48.019Z,99.90
2023-02-15T01:33:18.764Z,99.90
2023-02-15T01:35:47.114Z,99.90
2023-02-15T01:38:15.216Z,99.90
2023-02-15T01:40:41.997Z,99.90
2023-02-15T01:43:13.313Z,99.90
2023-02-15T01:45:40.493Z,99.90
2023-02-15T01:48:22.350Z,99.90
2023-02-15T01:50:54.057Z,99.90
2023-02-15T01:53:30.678Z,99.90
2023-02-15T01:56:03.234Z,99.90
2023-02-15T01:58:30.992Z,99.90
2023-02-15T02:01:01.410Z,99.90
2023-02-15T02:03:59.101Z,99.90
2023-02-15T02:06:27.414Z,99.90
2023-02-15T02:08:57.766Z,99.90
2023-02-15T02:11:24.736Z,99.90
2023-02-15T02:13:53.912Z,99.90
2023-02-15T02:16:42.975Z,99.90
2023-02-15T02:19:43.501Z,99.90
2023-02-15T02:22:42.877Z,99.90
2023-02-15T02:25:37.283Z,99.90
2023-02-15T02:28:41.172Z,99.90
2023-02-15T02:31:45.714Z,99.90
2023-02-15T02:34:30.777Z,99.90
2023-02-15T02:37:03.928Z,99.90
2023-02-15T02:39:40.996Z,99.90
2023-02-15T02:42:20.616Z,99.90
2023-02-15T02:45:07.479Z,99.90
2023-02-15T02:47:56.032Z,99.90
2023-02-15T02:50:26.126Z,99.90
2023-02-15T02:52:55.250Z,99.90
2023-02-15T02:55:25.021Z,99.90
2023-02-15T02:58:06.011Z,99.90
2023-02-15T03:00:37.283Z,99.90
2023-02-15T03:03:11.019Z,99.90
2023-02-15T03:05:42.138Z,99.90
2023-02-15T03:08:10.722Z,99.90
2023-02-15T03:10:39.439Z,99.90
2023-02-15T03:13:06.594Z,99.90
2023-02-15T03:15:56.561Z,99.90
2023-02-15T03:18:28.963Z,99.90
2023-02-15T03:20:56.609Z,99.90
2023-02-15T03:23:25.325Z,99.90
2023-02-15T03:26:06.786Z,99.90
2023-02-15T03:28:39.051Z,99.90
2023-02-15T03:31:08.228Z,99.90
2023-02-15T03:33:39.122Z,99.90
2023-02-15T03:36:26.954Z,99.90
2023-02-15T03:39:23.338Z,99.90
2023-02-15T03:42:17.245Z,99.90
2023-02-15T03:44:52.467Z,99.90
2023-02-15T03:47:26.880Z,99.90
2023-02-15T03:50:31.422Z,99.90
2023-02-15T03:53:02.540Z,99.90
2023-02-15T03:55:29.903Z,99.90
2023-02-15T03:58:15.592Z,99.90
2023-02-15T04:01:09.098Z,99.90
2023-02-15T04:03:44.112Z,99.90
2023-02-15T04:06:11.062Z,99.90
2023-02-15T04:08:56.082Z,99.90
2023-02-15T04:11:22.774Z,99.90
2023-02-15T04:13:57.626Z,99.90
2023-02-15T04:16:31.119Z,99.90
2023-02-15T04:19:16.750Z,99.90
2023-02-15T04:22:02.028Z,99.90
2023-02-15T04:24:47.356Z,99.90
2023-02-15T04:27:15.300Z,99.90
2023-02-15T04:29:42.314Z,99.90
2023-02-15T04:32:09.086Z,99.90
2023-02-15T04:34:35.758Z,99.90
2023-02-15T04:37:02.421Z,99.90
2023-02-15T04:39:29.084Z,99.90
2023-02-15T04:41:55.784Z,99.90
2023-02-15T04:44:22.478Z,99.90
2023-02-15T04:46:49.177Z,99.90
2023-02-15T04:49:15.985Z,99.90
2023-02-15T04:51:42.662Z,99.90
2023-02-15T04:54:09.348Z,99.90
2023-02-15T04:56:38.618Z,99.90
2023-02-15T04:59:05.352Z,99.90
2023-02-15T05:01:32.117Z,99.90
2023-02-15T05:03:58.944Z,99.90
2023-02-15T05:06:25.613Z,99.90
2023-02-15T05:08:52.282Z,99.90
2023-02-15T05:11:19.341Z,99.90
2023-02-15T05:13:46.015Z,99.90
2023-02-15T05:16:12.830Z,99.90
2023-02-15T05:18:39.665Z,99.90
2023-02-15T05:21:06.389Z,99.90
2023-02-15T05:23:33.107Z,99.90
2023-02-15T05:26:18.228Z,99.90
2023-02-15T05:28:44.878Z,99.90
2023-02-15T05:31:19.521Z,99.90
2023-02-15T05:33:46.883Z,99.90
2023-02-15T05:36:13.974Z,99.90
2023-02-15T05:38:41.173Z,99.90
2023-02-15T05:41:09.540Z,99.90
2023-02-15T05:43:36.314Z,99.90
2023-02-15T05:46:04.257Z,99.90
2023-02-15T05:48:32.082Z,99.90
2023-02-15T05:51:06.277Z,99.90
2023-02-15T05:53:35.703Z,99.90
2023-02-15T05:56:03.860Z,99.90
2023-02-15T05:58:34.346Z,99.90
2023-02-15T06:01:08.319Z,99.90
2023-02-15T06:03:35.269Z,99.90
2023-02-15T06:06:02.349Z,99.90
2023-02-15T06:08:29.097Z,99.90
2023-02-15T06:10:55.744Z,99.90
2023-02-15T06:13:22.459Z,99.90
2023-02-15T06:15:49.206Z,99.90
2023-02-15T06:18:15.869Z,99.90
2023-02-15T06:20:42.567Z,99.90
2023-02-15T06:23:09.265Z,99.90
2023-02-15T06:25:36.908Z,99.90
2023-02-15T06:28:04.823Z,99.90
2023-02-15T06:30:31.597Z,99.90
2023-02-15T06:32:58.328Z,99.90
2023-02-15T06:35:25.389Z,99.90
2023-02-15T06:37:52.147Z,99.90
2023-02-15T06:40:18.855Z,99.90
2023-02-15T06:42:45.674Z,99.90
2023-02-15T06:45:12.882Z,99.90
2023-02-15T06:47:39.812Z,99.90
2023-02-15T06:50:07.805Z,99.90
2023-02-15T06:52:34.828Z,99.90
2023-02-15T06:55:01.707Z,99.90
2023-02-15T06:57:28.408Z,99.90
2023-02-15T06:59:55.101Z,99.90
2023-02-15T07:02:21.795Z,99.90
2023-02-15T07:04:48.552Z,99.90
2023-02-15T07:07:15.267Z,99.90
2023-02-15T07:09:42.159Z,99.90
2023-02-15T07:12:29.180Z,99.90
2023-02-15T07:14:55.933Z,99.90
2023-02-15T07:17:38.554Z,99.90
2023-02-15T07:20:12.644Z,99.90
2023-02-15T07:22:39.668Z,99.90
2023-02-15T07:25:09.716Z,99.90
2023-02-15T07:27:37.044Z,99.90
2023-02-15T07:30:05.486Z,99.90
2023-02-15T07:32:33.581Z,99.90
2023-02-15T07:35:00.617Z,99.90
2023-02-15T07:37:28.611Z,99.90
2023-02-15T07:39:55.323Z,99.90
2023-02-15T07:42:22.931Z,99.90
2023-02-15T07:44:50.177Z,99.90
2023-02-15T07:47:16.889Z,99.90
2023-02-15T07:49:43.693Z,99.90
2023-02-15T07:52:10.434Z,99.90
2023-02-15T07:54:37.116Z,99.90
2023-02-15T07:57:03.898Z,99.90
2023-02-15T07:59:30.635Z,99.90
2023-02-15T08:01:58.161Z,99.90
2023-02-15T08:04:25.669Z,99.90
2023-02-15T08:06:55.906Z,99.90
2023-02-15T08:09:23.306Z,99.90
2023-02-15T08:11:51.141Z,99.90
2023-02-15T08:14:20.085Z,99.90
2023-02-15T08:16:46.804Z,99.90
2023-02-15T08:19:27.008Z,99.90
2023-02-15T08:21:57.866Z,99.90
2023-02-15T08:24:26.581Z,99.90
2023-02-15T08:26:53.690Z,99.90
2023-02-15T08:29:26.217Z,99.90
2023-02-15T08:32:13.138Z,99.90
2023-02-15T08:34:41.981Z,99.90
2023-02-15T08:37:12.396Z,99.90
2023-02-15T08:39:39.099Z,99.90
2023-02-15T08:42:05.850Z,99.90
2023-02-15T08:44:32.571Z,99.90
2023-02-15T08:47:04.538Z,99.90
2023-02-15T08:49:31.898Z,99.90
2023-02-15T08:51:58.685Z,99.90
2023-02-15T08:54:25.582Z,99.90
2023-02-15T08:56:59.795Z,99.90
2023-02-15T08:59:27.906Z,99.90
2023-02-15T09:01:55.305Z,99.90
2023-02-15T09:04:23.765Z,99.90
2023-02-15T09:06:51.658Z,99.90
2023-02-15T09:09:19.359Z,99.90
2023-02-15T09:11:48.617Z,99.90
2023-02-15T09:14:21.317Z,99.90
2023-02-15T09:16:50.292Z,99.90
2023-02-15T09:19:18.934Z,99.90
2023-02-15T09:21:45.725Z,99.90
2023-02-15T09:24:14.964Z,99.90
2023-02-15T09:26:45.879Z,99.90
2023-02-15T09:29:14.223Z,99.90
2023-02-15T09:31:50.163Z,99.90
2023-02-15T09:34:19.500Z,99.90
2023-02-15T09:36:46.712Z,99.90
2023-02-15T09:39:31.580Z,99.90
2023-02-15T09:41:58.247Z,99.90
2023-02-15T09:45:01.857Z,99.90
2023-02-15T09:47:55.853Z,99.90
2023-02-15T09:50:55.534Z,99.90
2023-02-15T09:53:59.664Z,99.90
2023-02-15T09:56:38.323Z,99.90
2023-02-15T09:59:27.118Z,99.90
2023-02-15T10:02:28.827Z,99.90
2023-02-15T10:05:31.463Z,99.90
2023-02-15T10:08:23.076Z,99.90
2023-02-15T10:11:39.916Z,99.90
2023-02-15T10:14:28.655Z,99.90
2023-02-15T10:16:55.359Z,99.90
2023-02-15T10:19:42.919Z,99.90
2023-02-15T10:22:37.498Z,99.90
2023-02-15T10:25:26.495Z,99.90
2023-02-15T10:27:53.183Z,99.90
2023-02-15T10:30:40.181Z,99.90
2023-02-15T10:33:33.406Z,99.90
2023-02-15T10:36:22.357Z,99.90
2023-02-15T10:38:52.152Z,99.90
2023-02-15T10:41:35.400Z,99.90
2023-02-15T10:44:30.048Z,99.90
2023-02-15T10:47:12.764Z,99.90
2023-02-15T10:49:57.786Z,99.90
2023-02-15T10:52:42.993Z,99.90
2023-02-15T10:55:16.124Z,99.90
2023-02-15T10:58:07.465Z,99.90
2023-02-15T11:00:43.074Z,99.90
2023-02-15T11:03:48.352Z,99.90
2023-02-15T11:06:21.282Z,99.90
2023-02-15T11:09:02.220Z,99.90
2023-02-15T11:11:36.054Z,96.80
2023-02-15T11:14:26.086Z,96.60
2023-02-15T11:16:58.116Z,96.30
2023-02-15T11:19:31.146Z,95.20
2023-02-15T11:22:02.264Z,97.00
2023-02-15T11:24:32.437Z,96.80
2023-02-15T11:27:20.808Z,97.60
2023-02-15T11:30:14.494Z,97.50
2023-02-15T11:32:46.872Z,97.10
2023-02-15T11:35:32.492Z,94.60
2023-02-15T11:38:19.763Z,94.40
2023-02-15T11:41:06.335Z,95.30
2023-02-15T11:43:50.022Z,94.70
2023-02-15T11:46:16.940Z,92.60
2023-02-15T11:48:43.889Z,93.10
2023-02-15T11:51:14.850Z,91.70
2023-02-15T11:53:41.599Z,92.40
2023-02-15T11:56:19.559Z,90.60
2023-02-15T11:59:04.387Z,93.20
2023-02-15T12:01:36.481Z,93.40
2023-02-15T12:04:25.013Z,92.90
2023-02-15T12:07:03.919Z,94.60
2023-02-15T12:09:43.163Z,91.50
2023-02-15T12:12:24.156Z,92.50
2023-02-15T12:14:55.800Z,91.60
2023-02-15T12:17:26.679Z,91.30
2023-02-15T12:20:08.055Z,89.90
2023-02-15T12:22:38.276Z,91.30
2023-02-15T12:25:22.272Z,91.70
2023-02-15T12:27:50.154Z,94.40
2023-02-15T12:30:28.197Z,92.60
2023-02-15T12:32:59.530Z,94.60
2023-02-15T12:35:34.933Z,93.90
2023-02-15T12:38:10.304Z,94.10
2023-02-15T12:40:38.065Z,94.00
2023-02-15T12:43:09.845Z,92.60
2023-02-15T12:45:38.629Z,93.30
2023-02-15T12:48:14.971Z,91.40
2023-02-15T12:50:43.763Z,90.00
2023-02-15T12:53:34.902Z,90.00
2023-02-15T12:56:07.504Z,86.40
2023-02-15T12:58:39.765Z,86.90
2023-02-15T13:01:22.238Z,87.60
2023-02-15T13:04:22.589Z,90.40
2023-02-15T13:06:55.131Z,86.00
2023-02-15T13:09:38.924Z,87.80
2023-02-15T13:12:27.556Z,83.50
2023-02-15T13:14:55.957Z,84.00
2023-02-15T13:17:35.173Z,80.00
2023-02-15T13:20:25.670Z,81.30
2023-02-15T13:22:57.004Z,77.10
2023-02-15T13:25:27.528Z,77.30
2023-02-15T13:27:58.548Z,77.60
2023-02-15T13:30:36.071Z,73.00
2023-02-15T13:33:15.285Z,73.30
2023-02-15T13:36:02.903Z,74.70
2023-02-15T13:38:47.250Z,73.20
2023-02-15T13:41:20.862Z,72.30
2023-02-15T13:44:04.207Z,71.10
2023-02-15T13:46:49.060Z,72.50
2023-02-15T13:49:30.938Z,69.80
2023-02-15T13:52:24.022Z,70.10
2023-02-15T13:55:14.008Z,71.60
2023-02-15T13:58:12.867Z,68.20
2023-02-15T14:00:48.862Z,65.40
2023-02-15T14:03:43.619Z,65.70
2023-02-15T14:06:44.940Z,59.60
2023-02-15T14:09:42.617Z,55.00
2023-02-15T14:12:25.676Z,48.10
2023-02-15T14:15:16.717Z,46.50
2023-02-15T14:18:10.333Z,46.30
2023-02-15T14:21:01.526Z,44.80
2023-02-15T14:23:55.511Z,43.50
2023-02-15T14:26:39.156Z,41.10
2023-02-15T14:29:44.982Z,44.70
2023-02-15T14:32:34.666Z,44.00
2023-02-15T14:35:04.953Z,47.40
2023-02-15T14:37:43.120Z,48.30
2023-02-15T14:41:05.201Z,48.90
2023-02-15T14:43:42.895Z,50.50
2023-02-15T14:46:16.783Z,51.20
2023-02-15T14:48:52.984Z,52.10
2023-02-15T14:51:44.025Z,54.70
2023-02-15T14:54:20.805Z,58.70
2023-02-15T14:57:01.308Z,61.20
2023-02-15T14:59:59.943Z,63.80
2023-02-15T15:02:42.930Z,63.60
2023-02-15T15:05:20.820Z,63.00
2023-02-15T15:07:52.969Z,61.80
2023-02-15T15:10:20.903Z,62.20
2023-02-15T15:12:51.796Z,62.00
2023-02-15T15:15:27.775Z,61.40
2023-02-15T15:18:00.403Z,60.60
2023-02-15T15:20:27.180Z,59.30
2023-02-15T15:23:15.885Z,59.00
2023-02-15T15:25:46.193Z,59.70
2023-02-15T15:28:34.641Z,59.90
2023-02-15T15:31:18.853Z,61.90
2023-02-15T15:34:03.862Z,64.40
2023-02-15T15:36:49.095Z,67.00
2023-02-15T15:39:54.558Z,68.00
2023-02-15T15:42:43.238Z,69.30
2023-02-15T15:45:28.656Z,71.30
2023-02-15T15:48:07.445Z,73.50
2023-02-15T15:50:35.233Z,74.10
2023-02-15T15:53:04.157Z,78.70
2023-02-15T15:55:34.485Z,78.50
2023-02-15T15:58:06.037Z,79.70
2023-02-15T16:00:45.546Z,81.00
2023-02-15T16:03:25.629Z,82.80
2023-02-15T16:05:56.353Z,84.90
2023-02-15T16:08:41.725Z,86.60
2023-02-15T16:11:25.566Z,87.10
2023-02-15T16:13:53.903Z,89.80
2023-02-15T16:16:26.736Z,90.30
2023-02-15T16:18:53.679Z,90.30
2023-02-15T16:21:29.624Z,90.00
2023-02-15T16:24:01.715Z,90.70
2023-02-15T16:26:45.804Z,91.40
2023-02-15T16:29:28.133Z,96.40
2023-02-15T16:32:07.679Z,97.10
2023-02-15T16:34:34.507Z,99.50
2023-02-15T16:37:18.660Z,99.90
2023-02-15T16:39:49.215Z,99.90
2023-02-15T16:42:17.795Z,99.90
2023-02-15T16:44:46.808Z,99.90
2023-02-15T16:47:20.252Z,99.90
2023-02-15T16:49:49.734Z,99.90
2023-02-15T16:52:22.215Z,99.90
2023-02-15T16:54:59.229Z,99.90
2023-02-15T16:57:38.406Z,99.90
2023-02-15T17:00:08.871Z,99.90
2023-02-15T17:02:55.977Z,99.90
2023-02-15T17:05:24.140Z,99.90
2023-02-15T17:08:20.714Z,99.90
2023-02-15T17:11:05.691Z,99.90
2023-02-15T17:13:32.894Z,99.90
2023-02-15T17:15:59.601Z,99.90
2023-02-15T17:18:45.488Z,99.90
2023-02-15T17:21:21.610Z,99.90
2023-02-15T17:23:57.399Z,99.90
2023-02-15T17:26:33.427Z,99.90
2023-02-15T17:29:23.267Z,99.90
2023-02-15T17:31:52.654Z,99.90
2023-02-15T17:34:47.580Z,99.90
2023-02-15T17:37:37.366Z,99.90
2023-02-15T17:40:21.000Z,99.90
2023-02-15T17:42:47.687Z,99.90
2023-02-15T17:45:15.532Z,99.90
2023-02-15T17:47:42.731Z,99.90
2023-02-15T17:50:25.249Z,99.90
2023-02-15T17:52:54.022Z,99.90
2023-02-15T17:55:35.286Z,99.90
2023-02-15T17:58:05.325Z,99.90
2023-02-15T18:00:53.198Z,99.90
2023-02-15T18:03:38.557Z,99.90
2023-02-15T18:06:24.206Z,99.90
2023-02-15T18:09:12.405Z,99.90
2023-02-15T18:11:39.485Z,99.90
2023-02-15T18:14:10.803Z,99.90
2023-02-15T18:16:42.624Z,99.90
2023-02-15T18:19:17.060Z,99.90
2023-02-15T18:21:44.036Z,99.90
2023-02-15T18:24:24.395Z,99.90
2023-02-15T18:26:52.750Z,99.90
2023-02-15T18:29:20.085Z,99.90
2023-02-15T18:31:51.483Z,99.90
2023-02-15T18:34:42.286Z,99.90
2023-02-15T18:37:19.881Z,99.90
2023-02-15T18:39:54.055Z,99.90
2023-02-15T18:42:38.063Z,99.90
2023-02-15T18:45:14.140Z,99.90
2023-02-15T18:47:40.820Z,99.90
2023-02-15T18:50:08.105Z,99.90
2023-02-15T18:52:38.170Z,99.90
2023-02-15T18:55:18.174Z,99.90
2023-02-15T18:57:46.862Z,99.90
2023-02-15T19:00:25.336Z,99.90
2023-02-15T19:02:52.283Z,99.90
2023-02-15T19:05:18.887Z,99.90
2023-02-15T19:07:48.410Z,99.90
2023-02-15T19:10:21.886Z,99.90
2023-02-15T19:12:49.492Z,99.90
2023-02-15T19:15:18.902Z,99.90
2023-02-15T19:17:45.708Z,99.90
2023-02-15T19:20:18.535Z,99.90
2023-02-15T19:22:47.341Z,99.90
2023-02-15T19:25:26.502Z,99.90
2023-02-15T19:27:54.455Z,99.90
2023-02-15T19:30:30.090Z,99.90
2023-02-15T19:32:58.315Z,99.90
2023-02-15T19:35:32.929Z,99.90
2023-02-15T19:38:02.990Z,99.90
2023-02-15T19:40:32.876Z,99.90
2023-02-15T19:42:59.817Z,99.90
2023-02-15T19:45:28.799Z,99.90
2023-02-15T19:47:55.771Z,99.90
2023-02-15T19:50:25.800Z,99.90
2023-02-15T19:52:52.741Z,99.90
2023-02-15T19:55:26.628Z,99.90
2023-02-15T19:57:55.058Z,99.90
2023-02-15T20:00:25.775Z,99.90
2023-02-15T20:02:53.616Z,99.90
2023-02-15T20:05:21.320Z,99.90
2023-02-15T20:07:51.087Z,99.90
2023-02-15T20:10:26.445Z,99.90
2023-02-15T20:12:55.080Z,99.90
2023-02-15T20:15:21.767Z,99.90
2023-02-15T20:17:49.752Z,99.90
2023-02-15T20:20:18.634Z,99.90
2023-02-15T20:22:47.977Z,99.90
2023-02-15T20:25:17.974Z,99.90
2023-02-15T20:27:44.724Z,99.90
2023-02-15T20:30:22.900Z,99.90
2023-02-15T20:32:49.639Z,99.90
2023-02-15T20:35:22.805Z,99.90
2023-02-15T20:37:53.481Z,99.90
2023-02-15T20:40:24.396Z,99.90
2023-02-15T20:42:51.544Z,99.90
2023-02-15T20:45:30.570Z,99.90
2023-02-15T20:47:58.018Z,99.90
2023-02-15T20:50:31.155Z,99.90
2023-02-15T20:53:00.342Z,99.90
2023-02-15T20:55:30.566Z,99.90
2023-02-15T20:57:58.720Z,99.90
2023-02-15T21:00:28.490Z,99.90
2023-02-15T21:02:58.653Z,99.90
2023-02-15T21:05:30.271Z,99.90
2023-02-15T21:07:57.566Z,99.90
2023-02-15T21:10:29.919Z,99.90
2023-02-15T21:12:59.147Z,99.90
2023-02-15T21:15:26.040Z,99.90
2023-02-15T21:17:52.912Z,99.90
2023-02-15T21:20:20.034Z,99.90
2023-02-15T21:22:47.955Z,99.90
2023-02-15T21:25:37.955Z,99.90
2023-02-15T21:28:08.347Z,99.90
2023-02-15T21:30:35.114Z,99.90
2023-02-15T21:33:01.787Z,99.90
2023-02-15T21:35:29.007Z,99.90
2023-02-15T21:37:56.247Z,99.90
2023-02-15T21:40:28.057Z,99.90
2023-02-15T21:43:13.860Z,99.90
2023-02-15T21:45:59.507Z,99.90
2023-02-15T21:48:26.349Z,99.90
2023-02-15T21:51:11.678Z,99.90
2023-02-15T21:53:45.959Z,99.90
2023-02-15T21:56:24.394Z,99.90
2023-02-15T21:58:51.394Z,99.90
2023-02-15T22:01:25.087Z,99.90
2023-02-15T22:03:54.503Z,99.90
2023-02-15T22:06:21.298Z,99.90
2023-02-15T22:08:48.262Z,99.90
2023-02-15T22:11:22.030Z,99.90
2023-02-15T22:13:49.991Z,99.90
2023-02-15T22:16:19.337Z,99.90
2023-02-15T22:18:46.561Z,99.90
2023-02-15T22:21:13.381Z,99.90
2023-02-15T22:23:40.139Z,99.90
2023-02-15T22:26:11.802Z,99.90
2023-02-15T22:28:40.014Z,99.90
2023-02-15T22:31:12.048Z,99.90
2023-02-15T22:33:39.140Z,99.90
2023-02-15T22:36:06.354Z,99.90
2023-02-15T22:38:33.335Z,99.90
2023-02-15T22:41:04.015Z,99.90
2023-02-15T22:43:37.154Z,99.90
2023-02-15T22:46:07.139Z,99.90
2023-02-15T22:48:34.703Z,99.90
2023-02-15T22:51:01.705Z,99.90
2023-02-15T22:53:28.608Z,99.90
2023-02-15T22:55:56.225Z,99.90
2023-02-15T22:58:27.484Z,99.90
2023-02-15T23:00:54.621Z,99.90
2023-02-15T23:03:26.471Z,99.90
2023-02-15T23:05:54.124Z,99.90
2023-02-15T23:08:21.188Z,99.90
2023-02-15T23:10:53.393Z,99.90
2023-02-15T23:13:31.170Z,99.90
2023-02-15T23:16:00.732Z,99.90
2023-02-15T23:18:29.618Z,99.90
2023-02-15T23:21:00.352Z,99.90
2023-02-15T23:23:36.125Z,99.90
2023-02-15T23:26:04.869Z,99.90
2023-02-15T23:28:37.779Z,99.90
2023-02-15T23:31:31.422Z,99.90
2023-02-15T23:33:59.673Z,99.90
2023-02-15T23:36:33.996Z,99.90
2023-02-15T23:39:22.626Z,99.90
2023-02-15T23:41:49.294Z,99.90
2023-02-15T23:44:16.631Z,99.90
2023-02-15T23:46:46.527Z,99.90
2023-02-15T23:49:15.671Z,99.90
2023-02-15T23:51:44.784Z,99.90
2023-02-15T23:54:11.875Z,99.90
2023-02-15T23:56:38.877Z,99.90
2023-02-15T23:59:06.234Z,99.90
